Guide — WDE7328 — position and weather

sailwx.info

Track history (hours):
 
Tides and Currents Weather Stations Pressure Air Temp Water Temp Dewpoint Dewpoint Depression Visibility Wind Speed Wind Dir Waves Ship Positions

Guide

Owner: CROWLEY MARINE SERVICES INC, SEATTLE, WA. More information available from US FCC via Universal Licensing System and Coast Guard Vessel Documentation Center.

Last reported at 2014-Oct-01 05:33 UTC. Time now 2014-Oct-01 06:13 UTC.
Position N 47°15' W 122°26'.

Length 34 m; draft 5.1 m.

Type: Tug. MMSI: 366759530.

Date/timePositionNaut miles runAvg speedWind from/ knotsBaromVisibWave heightAir tempDewpointWater temp
2014-Oct-01 05:33N 47°15' W 122°26'0 0.0
2014-Oct-01 04:33N 47°15' W 122°26'0 0.0
2014-Oct-01 03:33N 47°15' W 122°26'0 0.0
2014-Oct-01 02:33N 47°15' W 122°26'0 0.0
2014-Oct-01 01:33N 47°15' W 122°26'0 0.0
2014-Oct-01 00:33N 47°15' W 122°26'0 0.0
2014-Sep-30 23:33N 47°15' W 122°26'0 0.0
2014-Sep-30 22:33N 47°15' W 122°26'0 0.0
2014-Sep-30 21:33N 47°15' W 122°26'0 0.0
2014-Sep-30 20:33N 47°15' W 122°26'0 0.0
2014-Sep-30 19:33N 47°15' W 122°26'0 0.0
2014-Sep-30 18:33N 47°15' W 122°26'0 0.0
2014-Sep-30 17:33N 47°15' W 122°26'0 0.0
2014-Sep-30 16:33N 47°15' W 122°26'0 0.0
2014-Sep-30 15:33N 47°15' W 122°26'0 0.0
2014-Sep-30 14:33N 47°15' W 122°26'1 1.0
2014-Sep-30 13:33N 47°16' W 122°26'1 0.6
2014-Sep-30 12:33N 47°16' W 122°25'1 0.6
2014-Sep-30 11:33N 47°17' W 122°26'1 1.4
2014-Sep-30 10:33N 47°15' W 122°26'0 0.0
2014-Sep-30 09:33N 47°15' W 122°26'0 0.0
2014-Sep-30 08:33N 47°15' W 122°26'0 0.0
2014-Sep-30 07:33N 47°15' W 122°26'0 0.0
2014-Sep-30 06:33N 47°15' W 122°26'0 0.0
2014-Sep-30 05:33N 47°15' W 122°26'0 0.0
2014-Sep-30 04:33N 47°15' W 122°26'1 0.8
2014-Sep-30 03:33N 47°16' W 122°26'3 2.5
2014-Sep-30 02:33N 47°16' W 122°23'0 0.4
2014-Sep-30 01:33N 47°16' W 122°22'3 2.8
2014-Sep-30 00:33N 47°18' W 122°26'0 0.0
2014-Sep-29 23:33N 47°18' W 122°26'2 1.7
2014-Sep-29 22:33N 47°16' W 122°25'2 1.7
2014-Sep-29 21:33N 47°18' W 122°26'6 6.3
2014-Sep-29 20:33N 47°23' W 122°22'10 9.7
2014-Sep-29 19:33N 47°33' W 122°25'4 3.8
2014-Sep-29 18:33N 47°35' W 122°21'0 0.0
2014-Sep-29 17:33N 47°35' W 122°21'0 0.0
2014-Sep-29 16:33N 47°35' W 122°21'0 0.0
2014-Sep-29 15:33N 47°35' W 122°21'0 0.0
2014-Sep-29 14:33N 47°35' W 122°21'0 0.0
2014-Sep-29 13:33N 47°35' W 122°21'0 0.0
2014-Sep-29 12:33N 47°35' W 122°21'0 0.0
2014-Sep-29 11:33N 47°35' W 122°21'0 0.0
2014-Sep-29 10:33N 47°35' W 122°21'0 0.0
2014-Sep-29 09:29N 47°35' W 122°21'0 0.0
2014-Sep-29 08:33N 47°35' W 122°21'0 0.0
2014-Sep-29 07:33N 47°35' W 122°21'0 0.0
2014-Sep-29 06:33N 47°35' W 122°21'1 0.6
2014-Sep-29 05:33N 47°35' W 122°21'2 1.6
2014-Sep-29 04:33N 47°36' W 122°22'10 9.7
2014-Sep-29 03:33N 47°26' W 122°23'9 9.0
2014-Sep-29 02:30N 47°17' W 122°25'2 1.9
2014-Sep-29 01:33N 47°16' W 122°23'1 0.7
2014-Sep-29 00:29N 47°16' W 122°24'0 0.0
2014-Sep-28 23:26N 47°16' W 122°24'0 0.0
2014-Sep-28 22:33N 47°16' W 122°24'2 1.7
2014-Sep-28 21:30N 47°17' W 122°26'2 2.2
2014-Sep-28 20:33N 47°15' W 122°26'0 0.0
2014-Sep-28 19:33N 47°15' W 122°26'0 0.0
2014-Sep-28 18:33N 47°15' W 122°26'0 0.0
2014-Sep-28 17:33N 47°15' W 122°26'0 0.0
2014-Sep-28 16:33N 47°15' W 122°26'0 0.0
2014-Sep-28 15:33N 47°15' W 122°26'0 0.0
2014-Sep-28 14:33N 47°15' W 122°26'0 0.0
2014-Sep-28 13:33N 47°15' W 122°26'0 0.0
2014-Sep-28 12:33N 47°15' W 122°26'0 0.0
2014-Sep-28 11:33N 47°15' W 122°26'0 0.0
2014-Sep-28 10:31N 47°15' W 122°26'0 0.0
2014-Sep-28 09:33N 47°15' W 122°26'0 0.0
2014-Sep-28 08:33N 47°15' W 122°26'0 0.0
2014-Sep-28 07:33N 47°15' W 122°26'0 0.0
2014-Sep-28 06:33N 47°15' W 122°26'0 0.0
2014-Sep-28 05:33N 47°15' W 122°26'0 0.0
2014-Sep-28 04:33N 47°15' W 122°26'0 0.0
2014-Sep-28 03:33N 47°15' W 122°26'0 0.0
2014-Sep-28 02:33N 47°15' W 122°26'0 0.0
2014-Sep-28 01:33N 47°15' W 122°26'2 1.6
2014-Sep-28 00:33N 47°17' W 122°25'1 1.0
2014-Sep-27 23:33N 47°16' W 122°24'2 1.8
2014-Sep-27 22:33N 47°15' W 122°26'0 0.0
2014-Sep-27 21:33N 47°15' W 122°26'0 0.0
2014-Sep-27 20:33N 47°15' W 122°26'0 0.0
2014-Sep-27 19:33N 47°15' W 122°26'0 0.0
2014-Sep-27 18:21N 47°15' W 122°26'0 0.0
2014-Sep-27 17:33N 47°15' W 122°26'0 0.0
2014-Sep-27 16:33N 47°15' W 122°26'0 0.0
2014-Sep-27 15:33N 47°15' W 122°26'2 1.6
2014-Sep-27 14:33N 47°17' W 122°25'0 0.2
2014-Sep-27 13:33N 47°17' W 122°25'1 1.3
2014-Sep-27 12:33N 47°16' W 122°24'1 0.6
2014-Sep-27 11:33N 47°16' W 122°23'0 0.0
2014-Sep-27 10:33N 47°16' W 122°23'2 2.0
2014-Sep-27 09:33N 47°15' W 122°26'0 0.0
2014-Sep-27 08:33N 47°15' W 122°26'0 0.0
2014-Sep-27 07:33N 47°15' W 122°26'0 0.0
2014-Sep-27 06:33N 47°15' W 122°26'0 0.0
2014-Sep-27 05:33N 47°15' W 122°26'0 0.0
2014-Sep-27 04:33N 47°15' W 122°26'2 1.5
2014-Sep-27 03:33N 47°16' W 122°24'1 0.5
2014-Sep-27 02:33N 47°17' W 122°25'1 0.8
2014-Sep-27 01:33N 47°16' W 122°24'0 0.0
2014-Sep-27 00:33N 47°16' W 122°24'0 0.0
2014-Sep-26 23:33N 47°16' W 122°24'1 0.6
2014-Sep-26 22:33N 47°16' W 122°24'2 2.2
2014-Sep-26 21:33N 47°17' W 122°26'1 0.5
2014-Sep-26 20:33N 47°18' W 122°26'3 3.9
2014-Sep-26 19:53N 47°20' W 122°27'3 9.6
2014-Sep-26 19:33N 47°22' W 122°23'4 8.3
2014-Sep-26 19:03N 47°27' W 122°24'4 9.1
2014-Sep-26 18:33N 47°31' W 122°25'0 4.8
2014-Sep-26 18:33N 47°31' W 122°25'5 5.0
2014-Sep-26 17:33N 47°35' W 122°21'0 0.0
2014-Sep-26 17:33N 47°35' W 122°21'0 0.0
2014-Sep-26 16:33N 47°35' W 122°21'0 0.0
2014-Sep-26 16:33N 47°35' W 122°21'0 0.0
2014-Sep-26 15:33N 47°35' W 122°21'0 0.0
2014-Sep-26 15:32N 47°35' W 122°21'0 0.0
2014-Sep-26 14:33N 47°35' W 122°21'0 0.0
2014-Sep-26 14:32N 47°35' W 122°21'0 0.2
2014-Sep-26 13:33N 47°35' W 122°21'0 1.2
2014-Sep-26 13:32N 47°35' W 122°21'3 3.0
2014-Sep-26 12:33N 47°35' W 122°25'0 8.9
2014-Sep-26 12:32N 47°35' W 122°25'1111.3
2014-Sep-26 11:33N 47°24' W 122°21'8 8.1
2014-Sep-26 10:32N 47°17' W 122°25'1 1.0
2014-Sep-26 09:33N 47°16' W 122°24'2 1.7
2014-Sep-26 08:33N 47°15' W 122°26'0 0.0
2014-Sep-26 07:33N 47°15' W 122°26'0 0.0
2014-Sep-26 06:33N 47°15' W 122°26'0 0.0
2014-Sep-26 05:33N 47°15' W 122°26'0 0.0
2014-Sep-26 04:33N 47°15' W 122°26'0 0.0
2014-Sep-26 03:33N 47°15' W 122°26'0 0.0
2014-Sep-26 02:33N 47°15' W 122°26'0 0.0
2014-Sep-26 01:33N 47°15' W 122°26'0 0.0
2014-Sep-26 00:33N 47°15' W 122°26'2 1.5
2014-Sep-25 23:33N 47°17' W 122°25'1 1.4
2014-Sep-25 22:32N 47°16' W 122°24'0 0.5
2014-Sep-25 21:33N 47°16' W 122°23'1 0.7
2014-Sep-25 20:33N 47°16' W 122°24'0 0.0
2014-Sep-25 19:33N 47°16' W 122°24'0 0.2
2014-Sep-25 18:33N 47°16' W 122°24'0 0.0
2014-Sep-25 16:33N 47°16' W 122°24'0 0.0
2014-Sep-25 15:33N 47°16' W 122°24'0 0.4
2014-Sep-25 14:33N 47°16' W 122°24'0 0.0
2014-Sep-25 13:33N 47°16' W 122°24'1 0.9
2014-Sep-25 12:33N 47°16' W 122°23'1 0.7
2014-Sep-25 11:33N 47°16' W 122°24'1 0.8
2014-Sep-25 10:33N 47°16' W 122°23'2 2.3
2014-Sep-25 09:33N 47°17' W 122°26'1 1.1
2014-Sep-25 08:33N 47°16' W 122°25'0 0.0
2014-Sep-25 07:33N 47°16' W 122°25'0 0.0
2014-Sep-25 06:33N 47°16' W 122°25'0 0.0
2014-Sep-25 05:33N 47°16' W 122°25'0 0.0
2014-Sep-25 04:33N 47°16' W 122°25'0 0.0
2014-Sep-25 03:33N 47°16' W 122°25'0 0.0
2014-Sep-25 02:33N 47°16' W 122°25'0 0.0
2014-Sep-25 01:33N 47°16' W 122°25'0 0.0
2014-Sep-25 00:33N 47°16' W 122°25'0 0.0
2014-Sep-24 23:33N 47°16' W 122°25'0 0.0
2014-Sep-24 22:33N 47°16' W 122°25'1 0.6
2014-Sep-24 21:33N 47°16' W 122°24'0 0.3
2014-Sep-24 20:33N 47°16' W 122°25'0 0.3
2014-Sep-24 19:33N 47°16' W 122°24'1 1.1
2014-Sep-24 18:33N 47°16' W 122°23'2 2.0
2014-Sep-24 17:33N 47°17' W 122°25'1 0.9
2014-Sep-24 16:33N 47°18' W 122°26'  
Track history (hours):
 
Tides and Currents Weather Stations Pressure Air Temp Water Temp Dewpoint Dewpoint Depression Visibility Wind Speed Wind Dir Waves Ship Positions

Guide

Owner: CROWLEY MARINE SERVICES INC, SEATTLE, WA. More information available from US FCC via Universal Licensing System and Coast Guard Vessel Documentation Center.

Last reported at 2014-Oct-01 05:33 UTC. Time now 2014-Oct-01 06:13 UTC.
Position N 47°15' W 122°26'.

Length 34 m; draft 5.1 m.

Type: Tug. MMSI: 366759530.

Date/timePositionNaut miles runAvg speedWind from/ knotsBaromVisibWave heightAir tempDewpointWater temp
2014-Oct-01 05:33N 47°15' W 122°26'0 0.0
2014-Oct-01 04:33N 47°15' W 122°26'0 0.0
2014-Oct-01 03:33N 47°15' W 122°26'0 0.0
2014-Oct-01 02:33N 47°15' W 122°26'0 0.0
2014-Oct-01 01:33N 47°15' W 122°26'0 0.0
2014-Oct-01 00:33N 47°15' W 122°26'0 0.0
2014-Sep-30 23:33N 47°15' W 122°26'0 0.0
2014-Sep-30 22:33N 47°15' W 122°26'0 0.0
2014-Sep-30 21:33N 47°15' W 122°26'0 0.0
2014-Sep-30 20:33N 47°15' W 122°26'0 0.0
2014-Sep-30 19:33N 47°15' W 122°26'0 0.0
2014-Sep-30 18:33N 47°15' W 122°26'0 0.0
2014-Sep-30 17:33N 47°15' W 122°26'0 0.0
2014-Sep-30 16:33N 47°15' W 122°26'0 0.0
2014-Sep-30 15:33N 47°15' W 122°26'0 0.0
2014-Sep-30 14:33N 47°15' W 122°26'1 1.0
2014-Sep-30 13:33N 47°16' W 122°26'1 0.6
2014-Sep-30 12:33N 47°16' W 122°25'1 0.6
2014-Sep-30 11:33N 47°17' W 122°26'1 1.4
2014-Sep-30 10:33N 47°15' W 122°26'0 0.0
2014-Sep-30 09:33N 47°15' W 122°26'0 0.0
2014-Sep-30 08:33N 47°15' W 122°26'0 0.0
2014-Sep-30 07:33N 47°15' W 122°26'0 0.0
2014-Sep-30 06:33N 47°15' W 122°26'0 0.0
2014-Sep-30 05:33N 47°15' W 122°26'0 0.0
2014-Sep-30 04:33N 47°15' W 122°26'1 0.8
2014-Sep-30 03:33N 47°16' W 122°26'3 2.5
2014-Sep-30 02:33N 47°16' W 122°23'0 0.4
2014-Sep-30 01:33N 47°16' W 122°22'3 2.8
2014-Sep-30 00:33N 47°18' W 122°26'0 0.0
2014-Sep-29 23:33N 47°18' W 122°26'2 1.7
2014-Sep-29 22:33N 47°16' W 122°25'2 1.7
2014-Sep-29 21:33N 47°18' W 122°26'6 6.3
2014-Sep-29 20:33N 47°23' W 122°22'10 9.7
2014-Sep-29 19:33N 47°33' W 122°25'4 3.8
2014-Sep-29 18:33N 47°35' W 122°21'0 0.0
2014-Sep-29 17:33N 47°35' W 122°21'0 0.0
2014-Sep-29 16:33N 47°35' W 122°21'0 0.0
2014-Sep-29 15:33N 47°35' W 122°21'0 0.0
2014-Sep-29 14:33N 47°35' W 122°21'0 0.0
2014-Sep-29 13:33N 47°35' W 122°21'0 0.0
2014-Sep-29 12:33N 47°35' W 122°21'0 0.0
2014-Sep-29 11:33N 47°35' W 122°21'0 0.0
2014-Sep-29 10:33N 47°35' W 122°21'0 0.0
2014-Sep-29 09:29N 47°35' W 122°21'0 0.0
2014-Sep-29 08:33N 47°35' W 122°21'0 0.0
2014-Sep-29 07:33N 47°35' W 122°21'0 0.0
2014-Sep-29 06:33N 47°35' W 122°21'1 0.6
2014-Sep-29 05:33N 47°35' W 122°21'2 1.6
2014-Sep-29 04:33N 47°36' W 122°22'10 9.7
2014-Sep-29 03:33N 47°26' W 122°23'9 9.0
2014-Sep-29 02:30N 47°17' W 122°25'2 1.9
2014-Sep-29 01:33N 47°16' W 122°23'1 0.7
2014-Sep-29 00:29N 47°16' W 122°24'0 0.0
2014-Sep-28 23:26N 47°16' W 122°24'0 0.0
2014-Sep-28 22:33N 47°16' W 122°24'2 1.7
2014-Sep-28 21:30N 47°17' W 122°26'2 2.2
2014-Sep-28 20:33N 47°15' W 122°26'0 0.0
2014-Sep-28 19:33N 47°15' W 122°26'0 0.0
2014-Sep-28 18:33N 47°15' W 122°26'0 0.0
2014-Sep-28 17:33N 47°15' W 122°26'0 0.0
2014-Sep-28 16:33N 47°15' W 122°26'0 0.0
2014-Sep-28 15:33N 47°15' W 122°26'0 0.0
2014-Sep-28 14:33N 47°15' W 122°26'0 0.0
2014-Sep-28 13:33N 47°15' W 122°26'0 0.0
2014-Sep-28 12:33N 47°15' W 122°26'0 0.0
2014-Sep-28 11:33N 47°15' W 122°26'0 0.0
2014-Sep-28 10:31N 47°15' W 122°26'0 0.0
2014-Sep-28 09:33N 47°15' W 122°26'0 0.0
2014-Sep-28 08:33N 47°15' W 122°26'0 0.0
2014-Sep-28 07:33N 47°15' W 122°26'0 0.0
2014-Sep-28 06:33N 47°15' W 122°26'0 0.0
2014-Sep-28 05:33N 47°15' W 122°26'0 0.0
2014-Sep-28 04:33N 47°15' W 122°26'0 0.0
2014-Sep-28 03:33N 47°15' W 122°26'0 0.0
2014-Sep-28 02:33N 47°15' W 122°26'0 0.0
2014-Sep-28 01:33N 47°15' W 122°26'2 1.6
2014-Sep-28 00:33N 47°17' W 122°25'1 1.0
2014-Sep-27 23:33N 47°16' W 122°24'2 1.8
2014-Sep-27 22:33N 47°15' W 122°26'0 0.0
2014-Sep-27 21:33N 47°15' W 122°26'0 0.0
2014-Sep-27 20:33N 47°15' W 122°26'0 0.0
2014-Sep-27 19:33N 47°15' W 122°26'0 0.0
2014-Sep-27 18:21N 47°15' W 122°26'0 0.0
2014-Sep-27 17:33N 47°15' W 122°26'0 0.0
2014-Sep-27 16:33N 47°15' W 122°26'0 0.0
2014-Sep-27 15:33N 47°15' W 122°26'2 1.6
2014-Sep-27 14:33N 47°17' W 122°25'0 0.2
2014-Sep-27 13:33N 47°17' W 122°25'1 1.3
2014-Sep-27 12:33N 47°16' W 122°24'1 0.6
2014-Sep-27 11:33N 47°16' W 122°23'0 0.0
2014-Sep-27 10:33N 47°16' W 122°23'2 2.0
2014-Sep-27 09:33N 47°15' W 122°26'0 0.0
2014-Sep-27 08:33N 47°15' W 122°26'0 0.0
2014-Sep-27 07:33N 47°15' W 122°26'0 0.0
2014-Sep-27 06:33N 47°15' W 122°26'0 0.0
2014-Sep-27 05:33N 47°15' W 122°26'0 0.0
2014-Sep-27 04:33N 47°15' W 122°26'2 1.5
2014-Sep-27 03:33N 47°16' W 122°24'1 0.5
2014-Sep-27 02:33N 47°17' W 122°25'1 0.8
2014-Sep-27 01:33N 47°16' W 122°24'0 0.0
2014-Sep-27 00:33N 47°16' W 122°24'0 0.0
2014-Sep-26 23:33N 47°16' W 122°24'1 0.6
2014-Sep-26 22:33N 47°16' W 122°24'2 2.2
2014-Sep-26 21:33N 47°17' W 122°26'1 0.5
2014-Sep-26 20:33N 47°18' W 122°26'3 3.9
2014-Sep-26 19:53N 47°20' W 122°27'3 9.6
2014-Sep-26 19:33N 47°22' W 122°23'4 8.3
2014-Sep-26 19:03N 47°27' W 122°24'4 9.1
2014-Sep-26 18:33N 47°31' W 122°25'0 4.8
2014-Sep-26 18:33N 47°31' W 122°25'5 5.0
2014-Sep-26 17:33N 47°35' W 122°21'0 0.0
2014-Sep-26 17:33N 47°35' W 122°21'0 0.0
2014-Sep-26 16:33N 47°35' W 122°21'0 0.0
2014-Sep-26 16:33N 47°35' W 122°21'0 0.0
2014-Sep-26 15:33N 47°35' W 122°21'0 0.0
2014-Sep-26 15:32N 47°35' W 122°21'0 0.0
2014-Sep-26 14:33N 47°35' W 122°21'0 0.0
2014-Sep-26 14:32N 47°35' W 122°21'0 0.2
2014-Sep-26 13:33N 47°35' W 122°21'0 1.2
2014-Sep-26 13:32N 47°35' W 122°21'3 3.0
2014-Sep-26 12:33N 47°35' W 122°25'0 8.9
2014-Sep-26 12:32N 47°35' W 122°25'1111.3
2014-Sep-26 11:33N 47°24' W 122°21'8 8.1
2014-Sep-26 10:32N 47°17' W 122°25'1 1.0
2014-Sep-26 09:33N 47°16' W 122°24'2 1.7
2014-Sep-26 08:33N 47°15' W 122°26'0 0.0
2014-Sep-26 07:33N 47°15' W 122°26'0 0.0
2014-Sep-26 06:33N 47°15' W 122°26'0 0.0
2014-Sep-26 05:33N 47°15' W 122°26'0 0.0
2014-Sep-26 04:33N 47°15' W 122°26'0 0.0
2014-Sep-26 03:33N 47°15' W 122°26'0 0.0
2014-Sep-26 02:33N 47°15' W 122°26'0 0.0
2014-Sep-26 01:33N 47°15' W 122°26'0 0.0
2014-Sep-26 00:33N 47°15' W 122°26'2 1.5
2014-Sep-25 23:33N 47°17' W 122°25'1 1.4
2014-Sep-25 22:32N 47°16' W 122°24'0 0.5
2014-Sep-25 21:33N 47°16' W 122°23'1 0.7
2014-Sep-25 20:33N 47°16' W 122°24'0 0.0
2014-Sep-25 19:33N 47°16' W 122°24'0 0.2
2014-Sep-25 18:33N 47°16' W 122°24'0 0.0
2014-Sep-25 16:33N 47°16' W 122°24'0 0.0
2014-Sep-25 15:33N 47°16' W 122°24'0 0.4
2014-Sep-25 14:33N 47°16' W 122°24'0 0.0
2014-Sep-25 13:33N 47°16' W 122°24'1 0.9
2014-Sep-25 12:33N 47°16' W 122°23'1 0.7
2014-Sep-25 11:33N 47°16' W 122°24'1 0.8
2014-Sep-25 10:33N 47°16' W 122°23'2 2.3
2014-Sep-25 09:33N 47°17' W 122°26'1 1.1
2014-Sep-25 08:33N 47°16' W 122°25'0 0.0
2014-Sep-25 07:33N 47°16' W 122°25'0 0.0
2014-Sep-25 06:33N 47°16' W 122°25'0 0.0
2014-Sep-25 05:33N 47°16' W 122°25'0 0.0
2014-Sep-25 04:33N 47°16' W 122°25'0 0.0
2014-Sep-25 03:33N 47°16' W 122°25'0 0.0
2014-Sep-25 02:33N 47°16' W 122°25'0 0.0
2014-Sep-25 01:33N 47°16' W 122°25'0 0.0
2014-Sep-25 00:33N 47°16' W 122°25'0 0.0
2014-Sep-24 23:33N 47°16' W 122°25'0 0.0
2014-Sep-24 22:33N 47°16' W 122°25'1 0.6
2014-Sep-24 21:33N 47°16' W 122°24'0 0.3
2014-Sep-24 20:33N 47°16' W 122°25'0 0.3
2014-Sep-24 19:33N 47°16' W 122°24'1 1.1
2014-Sep-24 18:33N 47°16' W 122°23'2 2.0
2014-Sep-24 17:33N 47°17' W 122°25'1 0.9
2014-Sep-24 16:33N 47°18' W 122°26'  

Dump ship's entire track history